Pipe Spring National Monumen, Arizona
Current Conditions -  °F | °C
As of 12:15 AM on Saturday 25 Oct 2014 (Local Time) from KAZC Reporting Station
Clear Clear  
Wind Chill: 39°   Ceiling: Unl
Heat Index: 43°   Visibility: 10mi
Dew Point: 32°   Wind: 6mph
Humidity: 66%   Direction: 130°SE
Pressure: 30.25"   Gusts: NA
Location:  36.9484°N, 112.529°W
Report Text: KAZC 250715Z AUTO 13005KT 10SM CLR 06/00 A3025 RMK AO2 T00610001
Loading
Personal Weather Stations






























Interactive Weather Map
Tropical Storm Tracking
New forecast layout! Learn more

10-Day Weather Forecast

Advertisements
Track Severe Weather on mobile